Time;durP1;ratioP1;P1;durP2;ratioP2;P2;SDS_P1;SDS_P2;PMS_P1;PMS_P2;Temp;Humidity;BMP_temperature;BMP_pressure;BME280_temperature;BME280_humidity;BME280_pressure;Samples;Min_cycle;Max_cycle;Signal;HPM_P1;HPM_P2
2022/12/09 00:01:02;;;;;;;3.58;3.28;;;;;;;;;;4987329;28;20049;-46
2022/12/09 00:03:27;;;;;;;3.72;3.42;;;;;;;;;;4986497;28;20018;-46
2022/12/09 00:05:53;;;;;;;4.55;3.20;;;;;;;;;;4985454;28;20089;-44
2022/12/09 00:08:18;;;;;;;3.50;3.15;;;;;;;;;;4988139;28;20030;-44
2022/12/09 00:10:43;;;;;;;4.47;4.05;;;;;;;;;;4985689;28;20055;-44
2022/12/09 00:13:09;;;;;;;3.53;2.65;;;;;;;;;;4983271;28;20023;-47
2022/12/09 00:15:39;;;;;;;3.00;2.80;;;;;;;;;;4984906;28;20080;-44
2022/12/09 00:18:04;;;;;;;3.38;3.00;;;;;;;;;;4986659;28;20034;-43
2022/12/09 00:20:30;;;;;;;4.05;3.20;;;;;;;;;;4983561;28;20037;-44
2022/12/09 00:22:56;;;;;;;3.20;2.90;;;;;;;;;;4977622;28;20708;-44
2022/12/09 00:25:21;;;;;;;3.45;3.00;;;;;;;;;;4984431;28;20061;-44
2022/12/09 00:27:46;;;;;;;2.75;2.58;;;;;;;;;;4987112;28;20118;-46
2022/12/09 00:30:12;;;;;;;3.60;2.88;;;;;;;;;;4984948;28;20036;-44
2022/12/09 00:32:37;;;;;;;3.08;2.20;;;;;;;;;;4987987;28;20411;-50
2022/12/09 00:35:03;;;;;;;3.63;2.65;;;;;;;;;;4983855;28;20030;-50
2022/12/09 00:37:28;;;;;;;2.75;2.50;;;;;;;;;;4980560;28;20022;-44
2022/12/09 00:39:54;;;;;;;5.13;2.70;;;;;;;;;;4984030;28;20045;-47
2022/12/09 00:42:19;;;;;;;9.10;3.28;;;;;;;;;;4985566;28;20554;-44
2022/12/09 00:44:45;;;;;;;4.50;2.75;;;;;;;;;;4979783;28;20015;-45
2022/12/09 00:47:10;;;;;;;2.90;2.53;;;;;;;;;;4984975;28;20403;-44
2022/12/09 00:49:35;;;;;;;8.45;3.33;;;;;;;;;;4983469;28;20399;-44
2022/12/09 00:52:01;;;;;;;9.98;3.00;;;;;;;;;;4979026;28;20399;-44
2022/12/09 00:54:26;;;;;;;5.55;2.75;;;;;;;;;;4987063;28;20018;-49
2022/12/09 00:56:52;;;;;;;6.10;2.45;;;;;;;;;;4980193;28;20502;-43
2022/12/09 00:59:17;;;;;;;3.78;2.35;;;;;;;;;;4983530;28;20042;-43
2022/12/09 01:01:42;;;;;;;4.70;2.60;;;;;;;;;;4987399;28;20462;-47
2022/12/09 01:04:08;;;;;;;3.10;2.35;;;;;;;;;;4988042;28;20070;-43
2022/12/09 01:06:33;;;;;;;9.15;2.35;;;;;;;;;;4983499;28;20042;-46
2022/12/09 01:08:59;;;;;;;3.75;2.00;;;;;;;;;;4985642;28;20068;-46
2022/12/09 01:11:26;;;;;;;3.65;1.90;;;;;;;;;;4982439;28;20034;-44
2022/12/09 01:13:53;;;;;;;4.68;2.05;;;;;;;;;;4979089;28;20041;-44
2022/12/09 01:16:21;;;;;;;1.67;1.58;;;;;;;;;;4982283;28;20097;-45
2022/12/09 01:18:48;;;;;;;4.05;2.33;;;;;;;;;;4983938;28;20042;-46
2022/12/09 01:21:13;;;;;;;3.10;1.70;;;;;;;;;;4983000;28;20215;-44
2022/12/09 01:23:39;;;;;;;5.32;2.15;;;;;;;;;;4981943;28;20113;-45
2022/12/09 01:26:05;;;;;;;2.25;1.88;;;;;;;;;;4983835;28;20047;-46
2022/12/09 01:28:33;;;;;;;5.03;2.50;;;;;;;;;;4986434;28;20033;-43
2022/12/09 01:31:07;;;;;;;6.47;2.58;;;;;;;;;;4985069;28;20042;-44
2022/12/09 01:33:33;;;;;;;2.65;2.30;;;;;;;;;;4982678;28;20042;-43
2022/12/09 01:35:58;;;;;;;9.57;2.60;;;;;;;;;;4984773;28;20042;-44
2022/12/09 01:38:23;;;;;;;8.35;2.80;;;;;;;;;;4983556;28;20074;-45
2022/12/09 01:40:49;;;;;;;7.95;2.88;;;;;;;;;;4978579;28;20147;-43
2022/12/09 01:43:18;;;;;;;8.27;3.33;;;;;;;;;;4979056;28;20719;-45
2022/12/09 01:45:44;;;;;;;11.20;3.10;;;;;;;;;;4981328;28;20134;-43
2022/12/09 01:48:15;;;;;;;8.30;2.88;;;;;;;;;;4980141;28;20173;-44
2022/12/09 01:50:47;;;;;;;13.77;3.15;;;;;;;;;;4984750;28;20052;-45
2022/12/09 01:53:15;;;;;;;3.58;2.80;;;;;;;;;;4982202;28;20486;-44
2022/12/09 01:55:41;;;;;;;5.78;2.28;;;;;;;;;;4982082;28;20430;-44
2022/12/09 01:58:07;;;;;;;5.38;2.75;;;;;;;;;;4981849;28;20023;-44
2022/12/09 02:00:33;;;;;;;7.32;2.67;;;;;;;;;;4979847;28;20046;-45
2022/12/09 02:02:59;;;;;;;5.07;2.63;;;;;;;;;;4984906;28;20027;-43
2022/12/09 02:05:25;;;;;;;10.27;3.13;;;;;;;;;;4979896;28;20507;-47
2022/12/09 02:07:51;;;;;;;6.70;2.42;;;;;;;;;;4981240;28;20086;-43
2022/12/09 02:10:17;;;;;;;6.25;2.38;;;;;;;;;;4983650;28;20038;-43
2022/12/09 02:12:55;;;;;;;10.65;2.42;;;;;;;;;;4983920;28;20038;-43
2022/12/09 02:15:28;;;;;;;3.72;2.10;;;;;;;;;;4984324;28;20070;-44
2022/12/09 02:18:00;;;;;;;4.07;2.13;;;;;;;;;;4983173;28;20169;-44
2022/12/09 02:20:56;;;;;;;4.57;2.10;;;;;;;;;;4980212;28;20444;-43
2022/12/09 02:23:33;;;;;;;15.15;3.30;;;;;;;;;;4978959;28;20419;-44
2022/12/09 02:26:26;;;;;;;12.40;3.13;;;;;;;;;;4981968;28;20047;-44
2022/12/09 02:29:03;;;;;;;12.27;3.13;;;;;;;;;;4984462;28;20054;-43
2022/12/09 02:31:55;;;;;;;20.73;4.05;;;;;;;;;;4980895;28;20169;-43
2022/12/09 02:34:25;;;;;;;12.48;3.80;;;;;;;;;;4982952;28;20018;-43
2022/12/09 02:37:15;;;;;;;14.48;3.80;;;;;;;;;;4982679;28;20129;-43
2022/12/09 02:39:49;;;;;;;26.40;6.05;;;;;;;;;;4980351;28;20042;-44
2022/12/09 02:42:17;;;;;;;30.50;5.53;;;;;;;;;;4978328;28;20522;-47
2022/12/09 02:44:46;;;;;;;37.70;6.03;;;;;;;;;;4987137;28;20034;-45
2022/12/09 02:47:15;;;;;;;42.90;5.53;;;;;;;;;;4980509;28;20045;-43
2022/12/09 02:49:44;;;;;;;27.17;5.75;;;;;;;;;;4979477;28;20032;-47
2022/12/09 02:52:11;;;;;;;29.70;6.30;;;;;;;;;;4982902;28;20049;-43
2022/12/09 02:54:37;;;;;;;33.75;5.55;;;;;;;;;;4986299;28;20116;-44
2022/12/09 02:57:11;;;;;;;43.00;4.72;;;;;;;;;;4981840;28;20050;-47
2022/12/09 02:59:36;;;;;;;30.67;5.28;;;;;;;;;;4984348;28;20038;-46
2022/12/09 03:02:24;;;;;;;36.83;4.80;;;;;;;;;;4984116;28;20113;-45
2022/12/09 03:05:16;;;;;;;50.58;6.10;;;;;;;;;;4979168;28;20026;-43
2022/12/09 03:08:12;;;;;;;42.78;5.50;;;;;;;;;;4960590;28;20047;-44
2022/12/09 03:10:58;;;;;;;28.52;5.10;;;;;;;;;;4959478;28;20133;-43
2022/12/09 03:13:28;;;;;;;44.88;5.70;;;;;;;;;;4958410;28;20051;-43
2022/12/09 03:16:03;;;;;;;31.25;4.63;;;;;;;;;;4960694;28;20133;-43
2022/12/09 03:18:30;;;;;;;25.02;4.70;;;;;;;;;;4956857;28;20070;-43
2022/12/09 03:20:56;;;;;;;14.55;4.32;;;;;;;;;;4961430;28;20031;-45
2022/12/09 03:23:25;;;;;;;19.20;3.72;;;;;;;;;;4965545;28;20408;-43
2022/12/09 03:25:53;;;;;;;23.90;4.80;;;;;;;;;;4961237;28;20062;-44
2022/12/09 03:28:36;;;;;;;23.40;5.43;;;;;;;;;;4966130;28;20038;-46
2022/12/09 03:31:06;;;;;;;31.05;4.50;;;;;;;;;;4962823;28;20447;-43
2022/12/09 03:33:32;;;;;;;30.33;4.68;;;;;;;;;;4964877;28;20498;-44
2022/12/09 03:36:01;;;;;;;28.42;5.05;;;;;;;;;;4968947;28;20035;-43
2022/12/09 03:38:31;;;;;;;31.38;4.72;;;;;;;;;;4963410;28;20051;-43
2022/12/09 03:41:03;;;;;;;16.85;3.60;;;;;;;;;;4962458;28;20095;-47
2022/12/09 03:43:33;;;;;;;24.05;4.85;;;;;;;;;;4966392;28;20081;-44
2022/12/09 03:45:59;;;;;;;21.92;4.38;;;;;;;;;;4982944;28;20050;-44
2022/12/09 03:48:25;;;;;;;22.98;4.45;;;;;;;;;;4988632;28;20034;-43
2022/12/09 03:50:56;;;;;;;23.08;5.25;;;;;;;;;;4982479;28;20046;-50
2022/12/09 03:53:35;;;;;;;24.93;6.33;;;;;;;;;;4979700;28;20022;-43
2022/12/09 03:56:07;;;;;;;29.52;5.00;;;;;;;;;;4980327;28;20051;-43
2022/12/09 03:58:35;;;;;;;24.90;3.95;;;;;;;;;;4984156;28;20057;-44
2022/12/09 04:01:01;;;;;;;31.95;4.78;;;;;;;;;;4989672;28;20042;-44
2022/12/09 04:03:26;;;;;;;30.02;4.68;;;;;;;;;;4983401;28;20049;-44
2022/12/09 04:05:52;;;;;;;16.55;4.13;;;;;;;;;;4982763;28;20085;-43
2022/12/09 04:08:17;;;;;;;14.63;3.45;;;;;;;;;;4984805;28;20041;-44
2022/12/09 04:10:43;;;;;;;13.98;3.72;;;;;;;;;;4981778;28;20061;-44
2022/12/09 04:13:08;;;;;;;19.15;3.90;;;;;;;;;;4982644;28;20121;-46
2022/12/09 04:15:34;;;;;;;19.50;3.70;;;;;;;;;;4983256;28;20493;-47
2022/12/09 04:17:59;;;;;;;21.30;3.80;;;;;;;;;;4982797;28;20031;-44
2022/12/09 04:20:24;;;;;;;13.13;3.50;;;;;;;;;;4985522;28;20065;-45
2022/12/09 04:22:50;;;;;;;18.83;3.70;;;;;;;;;;4985182;28;20077;-44
2022/12/09 04:25:15;;;;;;;17.40;4.20;;;;;;;;;;4983700;28;20034;-44
2022/12/09 04:27:41;;;;;;;14.30;3.55;;;;;;;;;;4982581;28;20050;-44
2022/12/09 04:30:07;;;;;;;22.75;3.50;;;;;;;;;;4984024;28;20635;-47
2022/12/09 04:32:32;;;;;;;23.40;3.83;;;;;;;;;;4982397;28;20494;-43
2022/12/09 04:34:57;;;;;;;16.35;2.92;;;;;;;;;;4983593;28;20030;-43
2022/12/09 04:37:23;;;;;;;19.65;3.47;;;;;;;;;;4984033;28;20042;-45
2022/12/09 04:39:48;;;;;;;24.17;3.92;;;;;;;;;;4986204;28;20038;-49
2022/12/09 04:42:14;;;;;;;17.48;4.40;;;;;;;;;;4981211;28;20482;-45
2022/12/09 04:44:39;;;;;;;17.83;4.35;;;;;;;;;;4988090;28;20080;-43
2022/12/09 04:47:05;;;;;;;14.55;3.60;;;;;;;;;;4986379;28;20043;-44
2022/12/09 04:49:30;;;;;;;20.60;3.97;;;;;;;;;;4981210;28;20031;-43
2022/12/09 04:51:55;;;;;;;29.25;4.28;;;;;;;;;;4983426;28;20383;-43
2022/12/09 04:54:21;;;;;;;28.45;4.40;;;;;;;;;;4984338;28;20488;-44
2022/12/09 04:56:47;;;;;;;34.53;4.32;;;;;;;;;;4983858;28;20453;-46
2022/12/09 04:59:13;;;;;;;32.80;4.32;;;;;;;;;;4980117;28;20027;-45
2022/12/09 05:01:38;;;;;;;22.40;4.45;;;;;;;;;;4987718;28;20038;-50
2022/12/09 05:04:04;;;;;;;27.45;4.93;;;;;;;;;;4979031;28;20491;-47
2022/12/09 05:06:29;;;;;;;28.90;4.97;;;;;;;;;;4980447;28;20038;-43
2022/12/09 05:08:55;;;;;;;37.58;5.75;;;;;;;;;;4986351;28;20038;-43
2022/12/09 05:11:22;;;;;;;27.17;5.85;;;;;;;;;;4987590;28;20046;-44
2022/12/09 05:13:47;;;;;;;36.40;5.25;;;;;;;;;;4982772;28;20105;-44
2022/12/09 05:16:15;;;;;;;35.55;5.90;;;;;;;;;;4986925;28;20177;-44
2022/12/09 05:18:41;;;;;;;25.35;5.47;;;;;;;;;;4987051;28;20057;-46
2022/12/09 05:21:09;;;;;;;28.95;5.70;;;;;;;;;;4982600;28;20051;-46
2022/12/09 05:23:35;;;;;;;33.65;6.13;;;;;;;;;;4976738;28;20022;-47
2022/12/09 05:26:05;;;;;;;41.03;7.00;;;;;;;;;;4983564;28;20038;-44
2022/12/09 05:28:31;;;;;;;59.97;6.63;;;;;;;;;;4983115;28;20411;-44
2022/12/09 05:31:01;;;;;;;26.50;4.50;;;;;;;;;;4983042;28;20050;-44
2022/12/09 05:33:28;;;;;;;29.25;4.30;;;;;;;;;;4985732;28;20081;-44
2022/12/09 05:35:53;;;;;;;24.80;5.28;;;;;;;;;;4979336;28;20046;-46
2022/12/09 05:38:18;;;;;;;29.55;4.82;;;;;;;;;;4978212;28;20404;-46
2022/12/09 05:40:44;;;;;;;22.70;5.18;;;;;;;;;;4982455;28;20042;-46
2022/12/09 05:43:09;;;;;;;31.63;5.43;;;;;;;;;;4980590;28;20023;-44
2022/12/09 05:45:35;;;;;;;31.58;5.43;;;;;;;;;;4986263;28;20037;-43
2022/12/09 05:48:00;;;;;;;34.45;5.13;;;;;;;;;;4980418;28;20030;-42
2022/12/09 05:50:25;;;;;;;36.63;4.57;;;;;;;;;;4980695;28;20097;-45
2022/12/09 05:52:51;;;;;;;28.60;4.28;;;;;;;;;;4977977;28;20653;-43
2022/12/09 05:55:16;;;;;;;31.98;4.90;;;;;;;;;;4984490;28;20034;-43
2022/12/09 05:57:41;;;;;;;22.15;4.28;;;;;;;;;;4983983;28;20030;-43
2022/12/09 06:00:07;;;;;;;17.17;4.45;;;;;;;;;;4975580;28;20053;-46
2022/12/09 06:02:33;;;;;;;34.05;5.60;;;;;;;;;;4984257;28;20058;-46
2022/12/09 06:04:58;;;;;;;34.67;5.30;;;;;;;;;;4984882;28;20065;-44
2022/12/09 06:07:24;;;;;;;34.78;5.78;;;;;;;;;;4981999;28;20038;-44
2022/12/09 06:09:49;;;;;;;27.13;4.88;;;;;;;;;;4978264;28;20062;-44
2022/12/09 06:12:15;;;;;;;32.60;6.00;;;;;;;;;;4982127;28;20053;-44
2022/12/09 06:14:40;;;;;;;33.38;5.63;;;;;;;;;;4982240;28;20030;-45
2022/12/09 06:17:05;;;;;;;42.08;6.47;;;;;;;;;;4979736;28;20487;-44
2022/12/09 06:19:31;;;;;;;31.02;5.75;;;;;;;;;;4985111;28;20019;-44
2022/12/09 06:21:56;;;;;;;25.08;5.07;;;;;;;;;;4981867;28;20042;-43
2022/12/09 06:24:21;;;;;;;33.00;5.50;;;;;;;;;;4981286;28;20089;-45
2022/12/09 06:26:48;;;;;;;34.15;6.45;;;;;;;;;;4982616;28;20062;-44
2022/12/09 06:29:13;;;;;;;32.97;6.13;;;;;;;;;;4980808;28;20046;-43
2022/12/09 06:31:38;;;;;;;45.80;6.20;;;;;;;;;;4977647;28;20055;-44
2022/12/09 06:34:04;;;;;;;26.70;6.30;;;;;;;;;;4982880;28;20055;-45
2022/12/09 06:36:30;;;;;;;31.45;6.75;;;;;;;;;;4983130;28;20050;-45
2022/12/09 06:38:56;;;;;;;37.40;6.57;;;;;;;;;;4979396;28;20131;-44
2022/12/09 06:41:22;;;;;;;25.00;6.38;;;;;;;;;;4979729;28;20071;-49
2022/12/09 06:43:47;;;;;;;40.47;6.03;;;;;;;;;;4979203;28;20434;-44
2022/12/09 06:46:18;;;;;;;43.50;6.93;;;;;;;;;;4977904;28;20042;-44
2022/12/09 06:48:44;;;;;;;37.50;7.00;;;;;;;;;;4980780;28;20122;-46
2022/12/09 06:51:09;;;;;;;47.50;6.50;;;;;;;;;;4980888;28;20157;-46
2022/12/09 06:53:35;;;;;;;37.80;7.30;;;;;;;;;;4979483;28;22406;-47
2022/12/09 06:56:03;;;;;;;40.83;6.85;;;;;;;;;;4978725;28;20034;-44
2022/12/09 06:58:29;;;;;;;51.80;7.10;;;;;;;;;;4979426;28;20360;-47
2022/12/09 07:00:54;;;;;;;48.65;6.90;;;;;;;;;;4987461;28;20096;-44
2022/12/09 07:03:20;;;;;;;30.52;6.40;;;;;;;;;;4984236;28;20033;-43
2022/12/09 07:05:45;;;;;;;34.03;7.68;;;;;;;;;;4984220;28;20042;-45
2022/12/09 07:08:11;;;;;;;39.05;6.45;;;;;;;;;;4985862;28;20023;-44
2022/12/09 07:10:36;;;;;;;38.00;7.40;;;;;;;;;;4981686;28;20050;-43
2022/12/09 07:13:02;;;;;;;34.92;6.82;;;;;;;;;;4984742;28;20023;-47
2022/12/09 07:15:27;;;;;;;34.28;6.65;;;;;;;;;;4984122;28;20081;-45
2022/12/09 07:17:53;;;;;;;42.38;7.20;;;;;;;;;;4981725;28;20042;-45
2022/12/09 07:20:18;;;;;;;47.15;7.70;;;;;;;;;;4987819;28;20065;-43
2022/12/09 07:22:43;;;;;;;35.08;7.47;;;;;;;;;;4983762;28;20027;-44
2022/12/09 07:25:09;;;;;;;38.38;7.95;;;;;;;;;;4986742;28;20023;-46
2022/12/09 07:27:34;;;;;;;44.65;8.13;;;;;;;;;;4984400;28;20034;-43
2022/12/09 07:30:00;;;;;;;41.53;6.88;;;;;;;;;;4984425;28;20038;-44
2022/12/09 07:32:25;;;;;;;58.33;7.13;;;;;;;;;;4983293;28;20131;-43
2022/12/09 07:34:50;;;;;;;37.58;7.07;;;;;;;;;;4983595;28;20037;-43
2022/12/09 07:37:16;;;;;;;29.27;7.70;;;;;;;;;;4985248;28;20381;-43
2022/12/09 07:39:41;;;;;;;45.40;9.88;;;;;;;;;;4986308;28;20061;-45
2022/12/09 07:42:06;;;;;;;52.92;10.07;;;;;;;;;;4983891;28;20042;-44
2022/12/09 07:44:32;;;;;;;39.90;9.85;;;;;;;;;;4992037;28;20554;-45
2022/12/09 07:46:57;;;;;;;53.75;12.05;;;;;;;;;;4983879;28;20074;-43
2022/12/09 07:49:23;;;;;;;71.07;16.58;;;;;;;;;;4985025;28;20042;-43
2022/12/09 07:51:49;;;;;;;75.47;21.50;;;;;;;;;;4983874;28;20036;-44
2022/12/09 07:54:16;;;;;;;68.32;18.73;;;;;;;;;;4984068;28;20047;-46
2022/12/09 07:56:42;;;;;;;64.55;15.30;;;;;;;;;;4985185;28;20034;-45
2022/12/09 07:59:09;;;;;;;56.85;11.25;;;;;;;;;;4982426;28;20042;-44
2022/12/09 08:01:34;;;;;;;53.88;13.45;;;;;;;;;;4988227;28;20043;-43
2022/12/09 08:04:00;;;;;;;57.13;10.95;;;;;;;;;;4987923;28;20036;-43
2022/12/09 08:06:28;;;;;;;41.78;10.05;;;;;;;;;;4980543;28;20038;-44
2022/12/09 08:37:28;;;;;;;87.10;21.42;;;;;;;;;;5104281;27;20604;-48
2022/12/09 08:39:53;;;;;;;46.72;15.75;;;;;;;;;;5081951;28;20048;-50
2022/12/09 08:42:18;;;;;;;60.50;18.75;;;;;;;;;;5080004;28;20035;-48
2022/12/09 08:44:44;;;;;;;54.25;14.00;;;;;;;;;;5081090;28;20043;-48
2022/12/09 08:47:09;;;;;;;46.95;13.88;;;;;;;;;;5080992;28;20064;-48
2022/12/09 08:49:35;;;;;;;61.25;14.38;;;;;;;;;;5082598;28;20024;-46
2022/12/09 08:52:00;;;;;;;47.95;13.75;;;;;;;;;;5077273;28;20032;-48
2022/12/09 08:54:26;;;;;;;51.17;15.00;;;;;;;;;;5079103;28;20028;-49
2022/12/09 08:56:55;;;;;;;72.95;18.25;;;;;;;;;;5074627;27;20131;-46
2022/12/09 08:59:22;;;;;;;52.17;16.15;;;;;;;;;;5073904;28;20043;-49
2022/12/09 09:01:47;;;;;;;35.28;12.65;;;;;;;;;;5081157;28;20067;-51
2022/12/09 09:04:15;;;;;;;36.05;10.73;;;;;;;;;;5073510;28;20028;-49
2022/12/09 09:06:43;;;;;;;38.47;10.90;;;;;;;;;;5075296;27;20044;-49
2022/12/09 09:09:10;;;;;;;37.97;12.20;;;;;;;;;;5075258;28;20032;-49
2022/12/09 09:11:36;;;;;;;31.73;12.60;;;;;;;;;;5076824;28;20493;-48
2022/12/09 09:14:03;;;;;;;34.72;10.57;;;;;;;;;;5070949;28;20032;-46
2022/12/09 09:16:29;;;;;;;40.28;9.65;;;;;;;;;;5078756;28;20038;-50
2022/12/09 09:18:54;;;;;;;29.92;9.30;;;;;;;;;;5076429;28;20030;-51
2022/12/09 09:21:22;;;;;;;27.17;8.70;;;;;;;;;;5080850;28;20490;-49
2022/12/09 09:23:48;;;;;;;24.90;7.85;;;;;;;;;;5078403;28;20040;-49
2022/12/09 09:26:18;;;;;;;26.80;8.10;;;;;;;;;;5079147;28;20375;-49
2022/12/09 09:28:44;;;;;;;27.65;10.50;;;;;;;;;;5081124;28;20032;-50
2022/12/09 09:31:12;;;;;;;38.67;11.05;;;;;;;;;;5080668;28;20081;-48
2022/12/09 09:33:38;;;;;;;36.85;10.95;;;;;;;;;;5077665;28;20059;-50
2022/12/09 09:36:06;;;;;;;28.58;9.48;;;;;;;;;;5075780;28;20106;-47
2022/12/09 09:38:31;;;;;;;27.65;6.97;;;;;;;;;;5061663;28;20116;-52
2022/12/09 09:40:59;;;;;;;26.45;8.07;;;;;;;;;;5064419;28;20115;-47
2022/12/09 09:43:30;;;;;;;20.33;6.57;;;;;;;;;;5067681;28;20031;-50
2022/12/09 09:45:57;;;;;;;23.13;6.78;;;;;;;;;;5067236;28;20033;-49
2022/12/09 09:48:28;;;;;;;18.88;5.50;;;;;;;;;;5068939;28;20031;-47
2022/12/09 09:51:27;;;;;;;14.05;5.28;;;;;;;;;;5063872;28;20042;-49
2022/12/09 09:53:53;;;;;;;16.60;4.85;;;;;;;;;;5043978;28;20128;-49
2022/12/09 09:56:30;;;;;;;11.50;5.20;;;;;;;;;;5039597;28;20041;-50
2022/12/09 09:59:15;;;;;;;14.98;5.50;;;;;;;;;;5041545;28;20029;-52
2022/12/09 10:01:44;;;;;;;17.42;6.18;;;;;;;;;;5041150;28;20052;-47
2022/12/09 10:04:30;;;;;;;16.55;6.60;;;;;;;;;;5044988;28;20044;-49
2022/12/09 10:06:55;;;;;;;14.23;5.53;;;;;;;;;;5039762;28;20079;-52
2022/12/09 10:09:38;;;;;;;21.20;7.80;;;;;;;;;;5040590;28;20049;-47
2022/12/09 10:12:20;;;;;;;15.25;5.20;;;;;;;;;;5043573;28;20060;-51
2022/12/09 10:15:08;;;;;;;13.73;5.50;;;;;;;;;;5044061;28;20029;-53
2022/12/09 10:17:38;;;;;;;17.25;5.53;;;;;;;;;;5040667;28;20400;-47
2022/12/09 10:20:14;;;;;;;10.85;4.35;;;;;;;;;;5043411;28;20036;-50
2022/12/09 10:22:45;;;;;;;14.13;4.18;;;;;;;;;;5041692;28;20041;-49
2022/12/09 10:25:23;;;;;;;13.38;4.43;;;;;;;;;;5042229;28;20032;-50
2022/12/09 10:28:09;;;;;;;11.70;4.40;;;;;;;;;;5043771;28;20644;-49
2022/12/09 10:30:36;;;;;;;10.35;3.88;;;;;;;;;;5063826;28;20045;-50
2022/12/09 10:33:01;;;;;;;5.43;3.35;;;;;;;;;;5065181;28;20036;-53
2022/12/09 10:35:28;;;;;;;11.68;3.90;;;;;;;;;;5067812;28;20486;-50
2022/12/09 10:38:03;;;;;;;6.93;3.83;;;;;;;;;;5061767;28;20064;-51
2022/12/09 10:40:35;;;;;;;10.30;3.90;;;;;;;;;;5066164;28;20040;-53
2022/12/09 10:43:36;;;;;;;4.82;3.60;;;;;;;;;;5065114;28;20098;-48
2022/12/09 10:46:04;;;;;;;8.25;4.05;;;;;;;;;;5061599;28;20028;-53
2022/12/09 10:48:36;;;;;;;11.07;3.47;;;;;;;;;;5065195;28;20029;-50
2022/12/09 10:51:05;;;;;;;6.47;3.70;;;;;;;;;;5064030;28;20103;-49
2022/12/09 10:53:32;;;;;;;7.53;3.80;;;;;;;;;;5057329;28;20025;-49
2022/12/09 10:55:59;;;;;;;8.00;3.70;;;;;;;;;;5063627;28;22704;-49
2022/12/09 10:58:27;;;;;;;5.68;3.47;;;;;;;;;;5059827;28;20116;-47
2022/12/09 11:01:02;;;;;;;6.25;4.15;;;;;;;;;;5061513;28;20028;-49
2022/12/09 11:03:30;;;;;;;8.40;3.70;;;;;;;;;;5065204;28;20104;-49
2022/12/09 11:06:01;;;;;;;11.48;6.10;;;;;;;;;;5064764;28;20395;-47
2022/12/09 11:08:26;;;;;;;13.80;6.15;;;;;;;;;;5065518;28;20036;-48
2022/12/09 11:10:52;;;;;;;20.48;8.43;;;;;;;;;;5065179;28;20028;-47
2022/12/09 11:13:21;;;;;;;19.95;8.35;;;;;;;;;;5065016;28;20055;-47
2022/12/09 11:15:59;;;;;;;15.50;7.50;;;;;;;;;;5064041;28;20043;-47
2022/12/09 11:18:34;;;;;;;17.50;7.70;;;;;;;;;;5060329;28;20510;-49
2022/12/09 11:21:03;;;;;;;15.82;6.80;;;;;;;;;;5061151;28;20075;-48
2022/12/09 11:23:29;;;;;;;12.80;5.70;;;;;;;;;;5052068;28;20078;-46
2022/12/09 11:26:04;;;;;;;13.30;5.07;;;;;;;;;;5058951;28;20028;-47
2022/12/09 11:28:35;;;;;;;10.90;4.97;;;;;;;;;;5065187;28;20079;-49
2022/12/09 11:31:13;;;;;;;14.05;5.90;;;;;;;;;;5063672;28;20060;-50
2022/12/09 11:33:52;;;;;;;10.85;5.05;;;;;;;;;;5064052;28;21346;-46
2022/12/09 11:36:21;;;;;;;9.25;4.22;;;;;;;;;;5062080;28;20029;-48
2022/12/09 11:38:48;;;;;;;5.85;3.88;;;;;;;;;;5061302;28;20029;-47
2022/12/09 11:44:23;;;;;;;12.38;4.45;;;;;;;;;;5065265;28;20830;-47
2022/12/09 11:47:08;;;;;;;9.85;4.80;;;;;;;;;;5063923;28;20040;-48
2022/12/09 11:50:02;;;;;;;10.68;4.80;;;;;;;;;;5062401;28;20522;-48
2022/12/09 11:52:29;;;;;;;6.60;3.78;;;;;;;;;;5062385;28;20041;-49
2022/12/09 11:55:21;;;;;;;16.95;5.07;;;;;;;;;;5063045;28;20036;-47
2022/12/09 11:57:51;;;;;;;9.80;5.20;;;;;;;;;;5062891;28;20321;-46
2022/12/09 12:00:20;;;;;;;17.13;6.68;;;;;;;;;;5065323;28;20043;-47
2022/12/09 12:03:08;;;;;;;9.27;6.00;;;;;;;;;;5064265;28;20082;-48
2022/12/09 12:05:33;;;;;;;13.73;6.60;;;;;;;;;;5061752;28;20390;-47
2022/12/09 12:08:20;;;;;;;12.48;5.78;;;;;;;;;;5064432;28;20052;-47
2022/12/09 12:11:08;;;;;;;16.98;5.60;;;;;;;;;;5065153;28;20059;-47
2022/12/09 12:13:48;;;;;;;11.82;4.88;;;;;;;;;;5063427;28;20052;-47
2022/12/09 12:16:44;;;;;;;18.75;6.18;;;;;;;;;;5061601;28;20467;-47
2022/12/09 12:19:32;;;;;;;12.90;5.95;;;;;;;;;;5055264;28;20482;-46
2022/12/09 12:22:21;;;;;;;7.75;4.53;;;;;;;;;;5064754;28;20165;-48
2022/12/09 12:25:24;;;;;;;10.07;4.70;;;;;;;;;;5064145;28;20075;-47
2022/12/09 12:28:20;;;;;;;12.88;4.88;;;;;;;;;;5063220;28;20044;-47
2022/12/09 12:31:03;;;;;;;10.00;4.72;;;;;;;;;;5063756;28;20478;-47
2022/12/09 12:33:50;;;;;;;8.18;4.13;;;;;;;;;;5059223;28;20186;-47
2022/12/09 12:36:35;;;;;;;7.82;4.60;;;;;;;;;;5061071;28;20120;-47
2022/12/09 12:39:12;;;;;;;17.60;4.90;;;;;;;;;;5064756;28;20036;-47
2022/12/09 12:41:46;;;;;;;9.80;3.88;;;;;;;;;;5057482;28;20040;-49
2022/12/09 12:47:11;;;;;;;11.40;4.38;;;;;;;;;;5058868;28;20090;-46
2022/12/09 12:49:39;;;;;;;9.02;4.00;;;;;;;;;;5062589;28;20367;-48
2022/12/09 12:52:11;;;;;;;6.72;4.15;;;;;;;;;;5057150;28;20123;-47
2022/12/09 12:55:20;;;;;;;8.20;4.70;;;;;;;;;;5062758;28;20027;-50
2022/12/09 12:58:15;;;;;;;10.07;5.07;;;;;;;;;;5040154;28;20590;-47
2022/12/09 13:01:02;;;;;;;10.15;4.18;;;;;;;;;;4971044;28;20444;-48
2022/12/09 13:03:37;;;;;;;4.97;3.50;;;;;;;;;;4976049;28;20113;-50
2022/12/09 13:06:03;;;;;;;6.85;4.25;;;;;;;;;;4975813;28;20121;-48
2022/12/09 13:08:36;;;;;;;9.93;3.55;;;;;;;;;;4975488;28;20049;-49
2022/12/09 13:11:27;;;;;;;;;;;;;;;;;;4978534;28;20102;-49
2022/12/09 13:13:56;;;;;;;5.32;3.90;;;;;;;;;;4974012;28;19951;-48
2022/12/09 13:16:31;;;;;;;6.57;3.58;;;;;;;;;;4974611;28;20047;-47
2022/12/09 13:19:06;;;;;;;6.75;4.22;;;;;;;;;;4975791;28;20069;-51
2022/12/09 13:21:33;;;;;;;5.18;3.38;;;;;;;;;;4972481;28;20034;-49
2022/12/09 13:24:25;;;;;;;7.03;3.70;;;;;;;;;;4979061;28;20492;-47
2022/12/09 13:27:03;;;;;;;5.43;3.72;;;;;;;;;;4966893;28;20086;-47
2022/12/09 13:29:34;;;;;;;6.85;3.65;;;;;;;;;;4971839;28;20500;-47
2022/12/09 13:32:14;;;;;;;9.77;3.75;;;;;;;;;;4967071;28;20985;-46
2022/12/09 13:34:45;;;;;;;11.63;3.63;;;;;;;;;;5004329;28;20030;-47
2022/12/09 13:37:33;;;;;;;7.13;3.70;;;;;;;;;;5035403;28;20049;-47
2022/12/09 13:39:59;;;;;;;7.65;3.50;;;;;;;;;;5065017;28;20037;-51
2022/12/09 13:45:22;;;;;;;10.05;3.85;;;;;;;;;;5067370;28;20082;-49
2022/12/09 13:47:49;;;;;;;10.55;3.50;;;;;;;;;;5065364;28;20033;-47
2022/12/09 13:50:40;;;;;;;7.07;3.63;;;;;;;;;;5067915;28;20032;-48
2022/12/09 13:53:20;;;;;;;9.00;4.63;;;;;;;;;;5063938;28;20394;-48
2022/12/09 13:56:05;;;;;;;12.32;5.93;;;;;;;;;;5063987;28;20036;-48
2022/12/09 13:58:55;;;;;;;13.60;4.65;;;;;;;;;;5063966;28;20068;-50
2022/12/09 14:01:33;;;;;;;11.68;4.70;;;;;;;;;;5066888;28;20044;-48
2022/12/09 14:04:32;;;;;;;9.60;4.15;;;;;;;;;;5065113;28;20477;-47
2022/12/09 14:07:03;;;;;;;7.78;4.28;;;;;;;;;;5063544;28;20056;-46
2022/12/09 14:09:33;;;;;;;7.68;4.47;;;;;;;;;;5065727;28;20108;-47
2022/12/09 14:12:02;;;;;;;7.85;4.53;;;;;;;;;;5066031;28;20529;-47
2022/12/09 14:14:27;;;;;;;12.85;5.00;;;;;;;;;;5068829;28;20497;-47
2022/12/09 14:17:00;;;;;;;8.07;5.45;;;;;;;;;;5067926;28;20070;-49
2022/12/09 14:19:28;;;;;;;11.07;5.32;;;;;;;;;;5066632;28;20028;-47
2022/12/09 14:22:18;;;;;;;10.45;4.88;;;;;;;;;;5057759;28;21802;-47
2022/12/09 14:24:57;;;;;;;7.20;5.10;;;;;;;;;;5067024;28;20074;-47
2022/12/09 14:27:24;;;;;;;11.85;4.95;;;;;;;;;;5065170;28;20051;-47
2022/12/09 14:29:55;;;;;;;14.18;5.20;;;;;;;;;;5066908;28;20020;-46
2022/12/09 14:32:27;;;;;;;11.00;5.95;;;;;;;;;;5063997;28;20083;-46
2022/12/09 14:35:08;;;;;;;14.07;6.32;;;;;;;;;;5066237;28;20036;-46
2022/12/09 14:38:07;;;;;;;9.25;5.60;;;;;;;;;;5059598;28;20047;-47
2022/12/09 14:40:41;;;;;;;9.98;6.03;;;;;;;;;;5059187;28;20043;-48
2022/12/09 14:43:38;;;;;;;7.80;5.60;;;;;;;;;;5061028;28;20044;-49
2022/12/09 14:46:17;;;;;;;11.30;5.60;;;;;;;;;;5061281;28;20079;-47
2022/12/09 14:48:49;;;;;;;8.07;5.05;;;;;;;;;;5064229;28;20027;-46
2022/12/09 14:51:46;;;;;;;9.60;5.50;;;;;;;;;;5063673;28;20033;-47
2022/12/09 14:54:40;;;;;;;7.70;5.13;;;;;;;;;;5059326;28;20033;-46
2022/12/09 14:57:18;;;;;;;10.10;6.38;;;;;;;;;;5064820;28;20048;-49
2022/12/09 14:59:49;;;;;;;11.75;8.32;;;;;;;;;;5059691;28;20448;-48
2022/12/09 15:02:28;;;;;;;25.05;11.45;;;;;;;;;;5063559;28;20024;-46
2022/12/09 15:04:55;;;;;;;10.52;6.70;;;;;;;;;;5065066;28;20494;-46
2022/12/09 15:07:32;;;;;;;7.35;5.68;;;;;;;;;;5064062;28;20067;-46
2022/12/09 15:10:02;;;;;;;20.73;10.10;;;;;;;;;;5064974;28;20045;-48
2022/12/09 15:12:38;;;;;;;10.13;6.65;;;;;;;;;;5062163;28;20075;-47
2022/12/09 15:15:11;;;;;;;9.93;6.25;;;;;;;;;;5063335;28;20040;-47
2022/12/09 15:17:42;;;;;;;6.75;5.93;;;;;;;;;;5063770;28;20094;-46
2022/12/09 15:20:21;;;;;;;12.25;7.28;;;;;;;;;;5062974;28;20542;-45
2022/12/09 15:22:57;;;;;;;19.90;11.50;;;;;;;;;;5064653;28;20056;-46
2022/12/09 15:25:24;;;;;;;20.33;11.38;;;;;;;;;;5062628;28;20028;-45
2022/12/09 15:28:01;;;;;;;19.30;11.95;;;;;;;;;;5064427;28;20041;-46
2022/12/09 15:30:32;;;;;;;19.52;12.50;;;;;;;;;;5061326;28;20044;-46
2022/12/09 15:32:58;;;;;;;19.48;12.75;;;;;;;;;;5063825;28;20040;-49